Time;durP1;ratioP1;P1;durP2;ratioP2;P2;SDS_P1;SDS_P2;PMS_P1;PMS_P2;Temp;Humidity;BMP_temperature;BMP_pressure;BME280_temperature;BME280_humidity;BME280_pressure;Samples;Min_cycle;Max_cycle;Signal;HPM_P1;HPM_P2
2022/09/19 04:01:22;;;;;;;2.50;1.07;;;9.50;99.90;;;;;;5538312;23;20549;-63
2022/09/19 04:03:49;;;;;;;4.27;0.93;;;9.60;99.90;;;;;;4957756;28;20459;-63
2022/09/19 04:06:17;;;;;;;3.30;1.17;;;9.60;99.90;;;;;;4957967;28;20542;-62
2022/09/19 04:08:43;;;;;;;1.80;1.00;;;9.60;99.90;;;;;;4958198;28;20466;-64
2022/09/19 04:11:11;;;;;;;2.90;0.87;;;9.70;99.90;;;;;;4958816;28;20472;-64
2022/09/19 04:13:38;;;;;;;6.17;1.27;;;9.70;99.90;;;;;;4958479;28;20554;-64
2022/09/19 04:16:06;;;;;;;1.77;1.10;;;9.70;99.90;;;;;;4958437;28;20455;-63
2022/09/19 04:18:34;;;;;;;3.43;1.50;;;9.80;99.90;;;;;;4958117;28;20943;-63
2022/09/19 04:21:03;;;;;;;4.57;1.20;;;9.80;99.90;;;;;;4958212;28;20487;-63
2022/09/19 04:23:29;;;;;;;4.47;1.10;;;9.80;99.90;;;;;;4958809;28;20456;-64
2022/09/19 04:25:57;;;;;;;3.37;1.50;;;9.80;99.90;;;;;;4958776;28;20459;-62
2022/09/19 04:28:24;;;;;;;5.30;1.30;;;9.80;99.90;;;;;;4959453;28;20459;-62
2022/09/19 04:30:51;;;;;;;2.60;1.27;;;9.80;99.90;;;;;;4965137;28;20507;-63
2022/09/19 04:33:20;;;;;;;3.30;1.27;;;9.80;99.90;;;;;;4965428;28;20522;-62
2022/09/19 04:35:48;;;;;;;1.90;1.10;;;9.80;99.90;;;;;;4965272;28;20455;-63
2022/09/19 04:38:18;;;;;;;2.33;1.33;;;9.80;99.90;;;;;;4965089;28;20456;-62
2022/09/19 04:40:47;;;;;;;5.33;1.53;;;9.90;99.90;;;;;;4957380;28;20608;-64
2022/09/19 04:43:16;;;;;;;2.43;1.30;;;9.90;99.90;;;;;;4957648;28;20464;-63
2022/09/19 04:45:48;;;;;;;4.30;1.47;;;9.90;99.90;;;;;;4957843;28;20943;-63
2022/09/19 04:48:15;;;;;;;7.87;1.50;;;9.90;99.90;;;;;;4958086;28;20631;-63
2022/09/19 04:50:43;;;;;;;3.20;1.50;;;9.90;99.90;;;;;;4957207;28;20484;-63
2022/09/19 04:53:16;;;;;;;5.57;2.17;;;10.00;99.90;;;;;;4957303;28;20456;-62
2022/09/19 04:55:43;;;;;;;3.50;2.97;;;10.10;99.90;;;;;;4957693;28;20444;-62
2022/09/19 04:58:10;;;;;;;3.87;1.73;;;10.50;99.90;;;;;;4957134;28;20463;-63
2022/09/19 05:00:39;;;;;;;3.20;1.20;;;10.80;99.90;;;;;;4956604;28;20494;-63
2022/09/19 05:03:08;;;;;;;4.10;1.50;;;11.10;99.90;;;;;;4956854;28;20443;-62
2022/09/19 05:05:37;;;;;;;3.37;1.63;;;11.30;99.90;;;;;;4956788;28;20455;-63
2022/09/19 05:08:07;;;;;;;3.67;1.40;;;11.30;99.90;;;;;;4956893;28;20527;-63
2022/09/19 05:10:35;;;;;;;3.13;1.47;;;11.30;99.90;;;;;;4956708;28;20472;-63
2022/09/19 05:13:02;;;;;;;3.63;1.60;;;11.20;99.90;;;;;;4957571;28;20455;-63
2022/09/19 05:15:28;;;;;;;5.83;2.00;;;11.10;99.90;;;;;;4957536;28;20808;-64
2022/09/19 05:17:55;;;;;;;8.10;2.50;;;11.00;99.90;;;;;;4956970;28;20460;-64
2022/09/19 05:20:25;;;;;;;4.00;2.10;;;10.90;99.90;;;;;;4957454;28;20579;-63
2022/09/19 05:22:58;;;;;;;6.70;2.23;;;10.90;99.90;;;;;;4958352;28;20444;-62
2022/09/19 05:25:27;;;;;;;4.27;1.73;;;10.80;99.90;;;;;;4957409;28;20447;-64
2022/09/19 05:27:57;;;;;;;6.60;2.00;;;10.80;99.90;;;;;;4957233;28;20456;-63
2022/09/19 05:30:26;;;;;;;2.73;1.80;;;10.70;99.90;;;;;;4957272;28;20444;-63
2022/09/19 05:32:53;;;;;;;5.13;1.47;;;10.70;99.90;;;;;;4957271;28;20459;-64
2022/09/19 05:35:20;;;;;;;2.33;1.33;;;10.70;99.90;;;;;;4956683;28;20462;-63
2022/09/19 05:37:47;;;;;;;2.23;1.73;;;10.70;99.90;;;;;;4957092;28;20459;-63
2022/09/19 05:40:14;;;;;;;4.73;1.43;;;10.70;99.90;;;;;;4957057;28;20479;-63
2022/09/19 05:42:42;;;;;;;4.37;1.70;;;10.70;99.90;;;;;;4961565;28;20455;-64
2022/09/19 05:45:11;;;;;;;2.73;1.43;;;10.70;99.90;;;;;;4958800;28;20487;-64
2022/09/19 05:47:39;;;;;;;6.70;1.83;;;10.70;99.90;;;;;;4957712;28;20456;-63
2022/09/19 05:50:08;;;;;;;4.70;1.90;;;10.80;99.90;;;;;;4956673;28;20459;-63
2022/09/19 05:55:19;;;;;;;10.00;2.93;;;10.70;99.90;;;;;;4956493;29;20507;-63
2022/09/19 05:57:51;;;;;;;3.07;1.57;;;10.70;99.90;;;;;;4955895;28;20513;-64
2022/09/19 06:00:19;;;;;;;4.17;1.60;;;10.80;99.90;;;;;;4955633;28;20563;-63
2022/09/19 06:02:52;;;;;;;7.37;2.23;;;10.80;99.90;;;;;;4955452;28;20490;-64
2022/09/19 06:05:19;;;;;;;5.70;2.00;;;10.90;99.90;;;;;;4955936;28;20472;-64
2022/09/19 06:07:46;;;;;;;5.13;2.13;;;10.90;99.90;;;;;;4955756;28;20459;-63
2022/09/19 06:10:13;;;;;;;2.83;1.43;;;11.00;99.90;;;;;;4955676;28;20467;-63
2022/09/19 06:12:39;;;;;;;3.93;1.60;;;11.00;99.90;;;;;;4955663;28;20456;-63
2022/09/19 06:15:07;;;;;;;6.30;1.90;;;11.00;99.90;;;;;;4955791;28;20475;-63
2022/09/19 06:17:35;;;;;;;8.30;2.67;;;11.10;99.90;;;;;;4955921;28;20900;-63
2022/09/19 06:20:02;;;;;;;6.10;2.00;;;11.10;99.90;;;;;;4956236;28;20460;-64
2022/09/19 06:22:30;;;;;;;4.70;2.00;;;11.10;99.90;;;;;;4956007;28;20476;-64
2022/09/19 06:24:56;;;;;;;4.00;1.70;;;11.20;99.90;;;;;;4956156;28;21009;-64
2022/09/19 06:27:23;;;;;;;6.53;1.67;;;11.20;99.90;;;;;;4960014;28;20533;-64
2022/09/19 06:29:50;;;;;;;5.77;1.77;;;11.30;99.90;;;;;;4959823;28;20529;-64
2022/09/19 06:32:18;;;;;;;5.60;2.00;;;11.30;99.90;;;;;;4959945;28;20566;-64
2022/09/19 06:34:46;;;;;;;7.83;1.73;;;11.30;99.90;;;;;;4959943;28;20487;-64
2022/09/19 06:37:13;;;;;;;5.90;2.03;;;11.30;99.90;;;;;;4959565;28;20475;-64
2022/09/19 06:39:40;;;;;;;4.67;2.13;;;11.40;99.90;;;;;;4959358;28;20462;-63
2022/09/19 06:42:07;;;;;;;6.87;1.90;;;11.40;99.90;;;;;;4959379;28;20487;-63
2022/09/19 06:44:34;;;;;;;4.03;1.80;;;11.50;99.90;;;;;;4959955;28;20456;-64
2022/09/19 06:47:00;;;;;;;6.40;2.30;;;11.60;99.90;;;;;;4959810;28;20461;-64
2022/09/19 06:49:27;;;;;;;5.10;2.47;;;11.60;99.90;;;;;;4959739;28;20455;-64
2022/09/19 06:51:56;;;;;;;7.50;2.67;;;11.60;99.90;;;;;;4959309;28;20526;-64
2022/09/19 06:54:24;;;;;;;5.43;2.70;;;11.60;99.90;;;;;;4964675;28;20483;-64
2022/09/19 06:56:51;;;;;;;5.50;2.23;;;11.60;99.90;;;;;;4960736;28;20459;-63
2022/09/19 06:59:18;;;;;;;10.60;2.27;;;11.70;99.90;;;;;;4959885;28;20459;-63
2022/09/19 07:01:45;;;;;;;5.87;2.30;;;11.70;99.90;;;;;;4959972;28;20487;-62
2022/09/19 07:04:12;;;;;;;8.30;3.27;;;11.70;99.90;;;;;;4959610;28;20494;-63
2022/09/19 07:06:39;;;;;;;6.80;2.13;;;11.80;99.90;;;;;;4959554;28;20513;-63
2022/09/19 07:09:07;;;;;;;6.37;2.37;;;11.80;99.90;;;;;;4959351;28;20460;-64
2022/09/19 07:11:35;;;;;;;10.57;2.63;;;11.80;99.90;;;;;;4958973;28;20507;-63
2022/09/19 07:14:03;;;;;;;5.93;2.13;;;11.90;99.90;;;;;;4958748;28;20824;-63
2022/09/19 07:16:29;;;;;;;8.23;2.30;;;11.90;99.90;;;;;;4958756;28;20946;-62
2022/09/19 07:18:56;;;;;;;8.77;2.20;;;12.00;99.90;;;;;;4958693;28;20958;-63
2022/09/19 07:21:23;;;;;;;9.57;2.43;;;12.00;99.90;;;;;;4958795;28;20578;-62
2022/09/19 07:23:50;;;;;;;6.30;2.40;;;12.00;99.90;;;;;;4958509;28;20821;-63
2022/09/19 07:26:18;;;;;;;7.40;2.13;;;12.00;99.90;;;;;;4958925;28;20568;-62
2022/09/19 07:28:45;;;;;;;6.97;2.60;;;12.00;99.90;;;;;;4958475;28;20581;-63
2022/09/19 07:31:11;;;;;;;4.93;2.20;;;12.10;99.90;;;;;;4958058;28;20476;-62
2022/09/19 07:33:38;;;;;;;6.30;2.50;;;12.10;99.90;;;;;;4958347;28;20451;-63
2022/09/19 07:36:07;;;;;;;5.27;1.63;;;12.20;99.90;;;;;;4964234;28;20522;-64
2022/09/19 07:38:34;;;;;;;8.47;2.30;;;12.20;99.90;;;;;;4962287;28;20859;-63
2022/09/19 07:41:01;;;;;;;12.73;2.30;;;12.30;99.90;;;;;;4960194;28;20879;-64
2022/09/19 07:43:29;;;;;;;6.33;2.93;;;12.30;99.90;;;;;;4958163;28;20456;-64
2022/09/19 07:45:55;;;;;;;6.67;2.13;;;12.30;99.90;;;;;;4957822;28;20938;-63
2022/09/19 07:48:22;;;;;;;8.40;2.57;;;12.30;99.90;;;;;;4958107;28;20452;-63
2022/09/19 07:50:49;;;;;;;7.93;2.30;;;12.30;99.90;;;;;;4958855;28;20484;-64
2022/09/19 07:53:17;;;;;;;6.60;2.23;;;12.30;99.90;;;;;;4958023;28;20506;-63
2022/09/19 07:55:49;;;;;;;4.67;2.50;;;12.30;99.90;;;;;;4958100;28;20439;-63
2022/09/19 07:58:15;;;;;;;11.00;3.70;;;12.30;99.90;;;;;;4958265;28;20472;-63
2022/09/19 08:00:45;;;;;;;8.53;2.27;;;12.40;99.90;;;;;;4958071;28;20550;-63
2022/09/19 08:03:13;;;;;;;11.10;4.00;;;12.40;99.90;;;;;;4958609;28;20467;-63
2022/09/19 08:05:42;;;;;;;8.90;2.37;;;12.50;99.90;;;;;;4958170;28;20460;-63
2022/09/19 08:08:10;;;;;;;8.37;2.57;;;12.40;99.90;;;;;;4959003;28;20514;-63
2022/09/19 08:10:38;;;;;;;6.47;2.07;;;12.40;99.90;;;;;;4957436;28;20562;-62
2022/09/19 08:13:06;;;;;;;7.63;2.57;;;12.40;99.90;;;;;;4958067;28;20464;-63
2022/09/19 08:15:34;;;;;;;7.30;2.67;;;12.40;99.90;;;;;;4957891;28;20455;-63
2022/09/19 08:18:04;;;;;;;7.20;2.37;;;12.50;99.90;;;;;;4957475;28;20955;-63
2022/09/19 08:20:33;;;;;;;5.60;2.10;;;12.50;99.90;;;;;;4958308;28;20855;-64
2022/09/19 08:23:03;;;;;;;9.57;2.00;;;12.60;99.90;;;;;;4957707;28;20483;-63
2022/09/19 08:25:33;;;;;;;4.67;2.20;;;12.60;99.90;;;;;;4958625;28;20445;-63
2022/09/19 08:28:00;;;;;;;12.67;2.33;;;12.60;99.90;;;;;;4960744;28;20459;-64
2022/09/19 08:30:27;;;;;;;8.20;2.10;;;12.70;99.90;;;;;;4957111;28;20998;-63
2022/09/19 08:32:55;;;;;;;5.20;2.30;;;12.80;99.90;;;;;;4957611;28;20562;-63
2022/09/19 08:35:24;;;;;;;4.67;2.10;;;12.80;99.90;;;;;;4957823;28;20456;-63
2022/09/19 08:37:55;;;;;;;5.00;1.87;;;12.80;99.90;;;;;;4957173;28;20451;-63
2022/09/19 08:40:25;;;;;;;5.33;2.20;;;12.80;99.90;;;;;;4957131;28;20450;-62
2022/09/19 08:43:02;;;;;;;7.50;2.90;;;12.80;99.90;;;;;;4957402;28;20486;-63
2022/09/19 08:45:42;;;;;;;6.17;2.17;;;12.80;99.90;;;;;;4957238;28;20436;-63
2022/09/19 08:48:15;;;;;;;6.13;2.00;;;12.80;99.90;;;;;;4957003;28;20450;-63
2022/09/19 08:50:49;;;;;;;6.37;1.83;;;13.00;99.90;;;;;;4956887;28;20974;-63
2022/09/19 08:53:25;;;;;;;10.17;3.10;;;13.10;99.90;;;;;;4957645;28;20450;-63
2022/09/19 08:55:55;;;;;;;7.93;2.13;;;13.10;99.90;;;;;;4958043;28;20448;-63
2022/09/19 08:58:24;;;;;;;6.90;1.80;;;13.20;99.90;;;;;;4957036;28;20514;-63
2022/09/19 09:00:53;;;;;;;12.93;2.27;;;13.20;99.90;;;;;;4956854;28;21066;-62
2022/09/19 09:03:38;;;;;;;6.63;1.90;;;13.10;99.90;;;;;;4957634;28;20440;-63
2022/09/19 09:06:18;;;;;;;6.60;2.13;;;13.10;99.90;;;;;;4957555;28;20531;-62
2022/09/19 09:08:54;;;;;;;4.57;2.03;;;13.00;99.90;;;;;;4957409;28;20851;-63
2022/09/19 09:11:30;;;;;;;5.17;2.10;;;13.00;99.90;;;;;;4957939;28;20471;-63
2022/09/19 09:14:04;;;;;;;12.70;3.20;;;13.00;99.90;;;;;;4957017;28;20447;-63
2022/09/19 09:16:44;;;;;;;6.10;2.33;;;13.00;99.90;;;;;;4957079;28;20439;-63
2022/09/19 09:19:23;;;;;;;7.53;2.33;;;13.00;99.90;;;;;;4956940;28;20439;-64
2022/09/19 09:22:01;;;;;;;3.73;1.73;;;13.10;99.90;;;;;;4956725;28;20487;-64
2022/09/19 09:24:33;;;;;;;6.97;2.40;;;13.20;99.90;;;;;;4956497;28;20502;-64
2022/09/19 09:27:03;;;;;;;5.67;1.90;;;13.20;99.90;;;;;;4956776;28;20444;-64
2022/09/19 09:29:34;;;;;;;8.00;1.93;;;13.30;99.90;;;;;;4956459;28;20530;-64
2022/09/19 09:32:08;;;;;;;5.77;2.70;;;13.30;99.90;;;;;;4956463;28;20816;-64
2022/09/19 09:34:40;;;;;;;4.77;2.27;;;13.30;99.90;;;;;;4956517;28;20450;-64
2022/09/19 09:37:20;;;;;;;4.07;2.07;;;13.40;99.90;;;;;;4966654;28;20471;-64
2022/09/19 09:39:59;;;;;;;5.73;2.60;;;13.50;99.90;;;;;;4961580;28;20444;-64
2022/09/19 09:42:32;;;;;;;4.73;2.60;;;13.60;99.90;;;;;;4957575;28;20515;-64
2022/09/19 09:45:06;;;;;;;5.30;1.87;;;13.80;99.90;;;;;;4956273;28;20514;-64
2022/09/19 09:47:44;;;;;;;5.90;1.87;;;14.00;99.90;;;;;;4956130;28;20498;-64
2022/09/19 09:50:28;;;;;;;6.20;2.30;;;14.20;99.90;;;;;;4955905;28;20912;-65
2022/09/19 09:53:03;;;;;;;3.93;2.10;;;14.40;99.90;;;;;;4956175;28;20438;-65
2022/09/19 09:58:41;;;;;;;2.90;1.77;;;14.90;99.90;;;;;;4957887;28;20513;-63
2022/09/19 10:04:15;;;;;;;4.30;2.10;;;15.20;99.90;;;;;;4956156;29;20427;-64
2022/09/19 10:06:52;;;;;;;4.03;1.70;;;15.20;99.90;;;;;;4956035;28;20448;-64
2022/09/19 10:09:23;;;;;;;5.00;2.00;;;15.20;99.90;;;;;;4956156;28;20448;-63
2022/09/19 10:11:56;;;;;;;5.57;2.40;;;15.10;99.90;;;;;;4957193;28;20504;-63
2022/09/19 10:14:28;;;;;;;10.00;2.37;;;15.10;99.90;;;;;;4956237;28;20904;-64
2022/09/19 10:16:59;;;;;;;6.57;2.00;;;15.00;99.90;;;;;;4956170;28;20804;-64
2022/09/19 10:19:30;;;;;;;7.37;1.70;;;14.90;99.90;;;;;;4955797;28;20520;-63
2022/09/19 10:21:57;;;;;;;8.93;2.33;;;14.80;99.90;;;;;;4956317;28;20574;-64
2022/09/19 10:24:47;;;;;;;2.93;1.93;;;14.80;99.90;;;;;;4956258;28;20546;-64
2022/09/19 10:27:16;;;;;;;2.97;1.60;;;14.90;99.90;;;;;;4955431;28;20915;-64
2022/09/19 10:29:50;;;;;;;4.10;2.10;;;15.00;99.90;;;;;;4955445;28;21041;-63
2022/09/19 10:32:23;;;;;;;4.47;2.27;;;15.00;99.90;;;;;;4956064;28;20555;-65
2022/09/19 10:34:50;;;;;;;5.77;2.50;;;15.00;99.90;;;;;;4956106;28;20547;-64
2022/09/19 10:37:20;;;;;;;2.83;1.70;;;15.00;99.90;;;;;;4955664;28;20463;-64
2022/09/19 10:39:48;;;;;;;4.90;1.73;;;15.10;99.90;;;;;;4955614;28;20456;-64
2022/09/19 10:42:38;;;;;;;6.13;2.23;;;15.20;99.90;;;;;;4955380;28;20571;-63
2022/09/19 10:45:26;;;;;;;5.87;1.80;;;15.40;99.90;;;;;;4955661;28;20447;-63
2022/09/19 10:47:56;;;;;;;5.70;1.80;;;15.60;99.90;;;;;;4955541;28;20436;-63
2022/09/19 10:50:24;;;;;;;4.30;1.77;;;15.90;99.90;;;;;;4955384;28;20451;-63
2022/09/19 10:52:59;;;;;;;7.83;1.77;;;16.10;99.90;;;;;;4955775;28;20530;-64
2022/09/19 10:55:27;;;;;;;3.30;1.90;;;16.10;99.90;;;;;;4955649;28;20977;-63
2022/09/19 10:58:00;;;;;;;5.27;1.77;;;16.10;99.90;;;;;;4955565;28;20812;-64
2022/09/19 11:00:29;;;;;;;4.67;2.03;;;16.20;99.90;;;;;;4955351;28;20465;-63
2022/09/19 11:02:58;;;;;;;2.90;1.40;;;16.20;99.90;;;;;;4955409;28;20475;-64
2022/09/19 11:05:27;;;;;;;3.40;1.53;;;16.40;99.90;;;;;;4955234;28;20510;-64
2022/09/19 11:07:56;;;;;;;2.97;1.40;;;16.40;99.90;;;;;;4955400;28;20506;-64
2022/09/19 11:10:33;;;;;;;6.43;2.20;;;16.50;99.90;;;;;;4955237;28;20523;-64
2022/09/19 11:13:07;;;;;;;4.50;1.60;;;16.40;99.90;;;;;;4958558;28;20467;-64
2022/09/19 11:15:41;;;;;;;3.60;1.73;;;16.50;99.90;;;;;;4958880;28;20463;-64
2022/09/19 11:18:18;;;;;;;3.87;2.30;;;16.70;99.90;;;;;;4958823;28;20443;-64
2022/09/19 11:20:57;;;;;;;2.70;1.23;;;17.10;99.90;;;;;;4958942;28;20497;-65
2022/09/19 11:24:00;;;;;;;10.67;2.53;;;17.40;99.90;;;;;;4958746;28;20574;-65
2022/09/19 11:26:41;;;;;;;2.13;1.63;;;17.70;99.90;;;;;;4959088;28;20498;-65
2022/09/19 11:29:29;;;;;;;3.83;1.90;;;17.70;99.90;;;;;;4959196;28;20443;-64
2022/09/19 11:32:06;;;;;;;2.80;1.90;;;17.70;99.90;;;;;;4959506;28;20479;-63
2022/09/19 11:34:41;;;;;;;5.40;1.63;;;17.80;99.90;;;;;;4958508;28;20907;-63
2022/09/19 11:37:19;;;;;;;11.33;2.03;;;17.90;99.90;;;;;;4965061;28;20498;-63
2022/09/19 11:39:57;;;;;;;2.40;1.20;;;18.00;99.90;;;;;;4964556;28;20444;-65
2022/09/19 11:42:38;;;;;;;3.97;1.50;;;18.00;99.90;;;;;;4961789;28;21113;-65
2022/09/19 11:45:11;;;;;;;3.43;1.40;;;18.10;99.90;;;;;;4958775;28;20444;-65
2022/09/19 11:48:02;;;;;;;3.33;1.53;;;17.90;99.90;;;;;;4958110;28;20527;-65
2022/09/19 11:50:45;;;;;;;3.73;1.83;;;17.80;99.90;;;;;;4958117;28;20444;-66
2022/09/19 11:53:36;;;;;;;4.83;1.60;;;17.60;99.90;;;;;;4958202;28;20443;-66
2022/09/19 11:56:19;;;;;;;4.67;2.13;;;17.60;99.90;;;;;;4958264;28;20444;-66
2022/09/19 11:58:57;;;;;;;2.57;1.27;;;17.70;99.90;;;;;;4958355;28;20440;-65
2022/09/19 12:01:37;;;;;;;4.30;1.70;;;17.90;99.90;;;;;;4957715;28;20490;-66
2022/09/19 12:04:18;;;;;;;4.07;1.27;;;18.10;99.90;;;;;;4957562;28;21053;-65
2022/09/19 12:07:00;;;;;;;5.43;2.17;;;18.30;99.90;;;;;;4958064;28;20436;-65
2022/09/19 12:09:33;;;;;;;2.27;1.30;;;18.50;99.90;;;;;;4957829;28;20440;-65
2022/09/19 12:12:04;;;;;;;5.40;2.30;;;18.50;99.90;;;;;;4958068;28;20488;-63
2022/09/19 12:14:39;;;;;;;4.50;2.00;;;18.50;99.90;;;;;;4957833;28;20443;-64
2022/09/19 12:17:12;;;;;;;3.23;1.30;;;18.40;99.90;;;;;;4961817;28;20447;-64
2022/09/19 12:19:45;;;;;;;3.77;1.50;;;18.40;99.90;;;;;;4966291;28;20487;-64
2022/09/19 12:22:16;;;;;;;2.30;1.30;;;18.40;99.90;;;;;;4962580;28;20487;-63
2022/09/19 12:24:52;;;;;;;1.80;1.57;;;18.50;99.90;;;;;;4957973;28;20443;-64
2022/09/19 12:27:28;;;;;;;4.93;1.53;;;18.80;99.90;;;;;;4957594;28;20443;-64
2022/09/19 12:30:05;;;;;;;2.37;1.20;;;19.30;99.90;;;;;;4957583;28;20454;-64
2022/09/19 12:32:38;;;;;;;1.67;1.07;;;19.50;99.90;;;;;;4957213;28;20475;-64
2022/09/19 12:35:14;;;;;;;3.43;1.40;;;19.60;99.90;;;;;;4957774;28;20547;-64
2022/09/19 12:37:48;;;;;;;1.47;1.20;;;19.70;99.90;;;;;;4957440;28;20443;-64
2022/09/19 12:40:28;;;;;;;3.73;1.70;;;19.80;99.90;;;;;;4956883;28;20785;-63
2022/09/19 12:43:01;;;;;;;4.63;1.40;;;19.70;99.90;;;;;;4957209;28;20467;-64
2022/09/19 12:45:37;;;;;;;2.10;1.13;;;19.80;99.90;;;;;;4957248;28;20446;-65
2022/09/19 12:48:14;;;;;;;3.50;1.60;;;19.40;99.90;;;;;;4957229;28;20443;-65
2022/09/19 12:50:44;;;;;;;2.73;1.80;;;19.30;99.90;;;;;;4957075;28;20538;-64
2022/09/19 12:53:22;;;;;;;3.80;1.30;;;19.30;99.90;;;;;;4956980;28;20860;-64
2022/09/19 12:56:00;;;;;;;3.03;1.40;;;19.30;99.90;;;;;;4956966;28;20444;-64
2022/09/19 12:58:32;;;;;;;5.13;1.70;;;19.20;99.90;;;;;;4956976;28;20440;-63
2022/09/19 13:01:12;;;;;;;3.13;1.50;;;19.20;99.90;;;;;;4957924;28;20491;-64
2022/09/19 13:03:44;;;;;;;6.73;2.00;;;18.90;99.90;;;;;;4959472;28;20503;-63
2022/09/19 13:06:17;;;;;;;2.00;1.23;;;18.70;99.90;;;;;;4957929;28;20503;-64
2022/09/19 13:08:48;;;;;;;1.67;1.20;;;18.70;99.90;;;;;;4957446;28;20444;-66
2022/09/19 13:11:21;;;;;;;2.47;1.20;;;18.60;99.90;;;;;;4957233;28;20511;-64
2022/09/19 13:13:51;;;;;;;2.73;1.47;;;18.80;99.90;;;;;;4956705;28;20439;-65
2022/09/19 13:16:23;;;;;;;2.97;1.30;;;18.90;99.90;;;;;;4956894;28;20554;-64
2022/09/19 13:24:29;;;;;;;2.77;1.00;;;19.80;99.90;;;;;;4956604;29;20592;-65
2022/09/19 13:26:57;;;;;;;3.20;1.50;;;19.80;99.90;;;;;;4956701;28;20849;-64
2022/09/19 13:29:45;;;;;;;2.40;1.00;;;19.70;99.90;;;;;;4956530;28;20511;-64
2022/09/19 13:32:34;;;;;;;3.60;1.50;;;19.50;99.90;;;;;;4956354;28;20475;-64
2022/09/19 13:35:14;;;;;;;2.00;1.50;;;19.40;99.90;;;;;;4955975;28;20487;-65
2022/09/19 13:37:58;;;;;;;4.10;1.53;;;19.50;99.90;;;;;;4956312;28;20534;-64
2022/09/19 13:40:46;;;;;;;4.63;1.40;;;19.50;99.90;;;;;;4956275;28;20490;-62
2022/09/19 13:43:23;;;;;;;3.13;1.83;;;19.60;99.90;;;;;;4956088;28;20464;-64
2022/09/19 13:45:57;;;;;;;6.60;1.70;;;19.40;99.90;;;;;;4956033;28;20443;-64
2022/09/19 13:48:32;;;;;;;5.57;1.63;;;19.20;99.90;;;;;;4955593;28;20970;-64
2022/09/19 13:51:06;;;;;;;4.73;1.53;;;19.00;99.90;;;;;;4955851;28;20542;-64
2022/09/19 13:53:38;;;;;;;4.13;1.20;;;18.70;99.90;;;;;;4955988;28;20518;-64
2022/09/19 13:56:22;;;;;;;4.17;1.40;;;18.50;99.90;;;;;;4956013;28;20451;-64
2022/09/19 13:58:49;;;;;;;2.73;1.40;;;18.20;99.90;;;;;;4955950;28;20598;-64
2022/09/19 14:01:21;;;;;;;4.30;1.70;;;18.00;99.90;;;;;;4955627;28;20530;-64
2022/09/19 14:03:56;;;;;;;5.63;1.50;;;17.80;99.90;;;;;;4956518;28;20464;-64
2022/09/19 14:06:29;;;;;;;11.10;1.67;;;17.80;99.90;;;;;;4956150;28;20535;-65
2022/09/19 14:09:20;;;;;;;3.57;1.40;;;17.40;99.90;;;;;;4955867;28;20452;-64
2022/09/19 14:11:49;;;;;;;3.50;1.70;;;17.20;99.90;;;;;;4955803;28;20566;-64
2022/09/19 14:14:49;;;;;;;3.70;1.53;;;16.80;99.90;;;;;;4955886;28;20451;-64
2022/09/19 14:17:28;;;;;;;3.23;1.70;;;16.40;99.90;;;;;;4953543;28;20456;-64
2022/09/19 14:20:01;;;;;;;1.60;1.50;;;15.90;99.90;;;;;;4955799;28;20512;-64
2022/09/19 14:22:40;;;;;;;3.57;1.63;;;15.60;99.90;;;;;;4955704;28;20472;-64
2022/09/19 14:25:16;;;;;;;3.07;2.20;;;15.30;99.90;;;;;;4955916;28;20857;-64
2022/09/19 14:28:20;;;;;;;2.00;1.90;;;15.10;99.90;;;;;;4955694;28;20451;-64
2022/09/19 14:31:22;;;;;;;2.47;1.20;;;14.90;99.90;;;;;;4955355;28;20809;-64
2022/09/19 14:34:11;;;;;;;1.90;1.50;;;14.70;99.90;;;;;;4934718;28;20455;-64
2022/09/19 14:37:06;;;;;;;1.87;1.10;;;14.60;99.90;;;;;;4957100;28;20486;-63
2022/09/19 14:39:48;;;;;;;1.37;1.27;;;14.50;99.90;;;;;;4956230;28;20443;-64
2022/09/19 14:42:36;;;;;;;1.97;0.93;;;14.50;99.90;;;;;;4964831;28;21041;-65
2022/09/19 14:45:25;;;;;;;1.80;1.33;;;14.50;99.90;;;;;;4959893;28;20436;-65
2022/09/19 14:47:55;;;;;;;4.10;2.83;;;14.70;99.90;;;;;;4962040;28;20468;-64
2022/09/19 14:50:24;;;;;;;2.53;1.60;;;14.90;99.90;;;;;;4960058;28;20443;-63
2022/09/19 14:52:57;;;;;;;2.93;1.20;;;15.00;99.90;;;;;;4959284;28;20455;-63
2022/09/19 14:55:28;;;;;;;1.73;1.30;;;15.00;99.90;;;;;;4959236;28;20436;-65
2022/09/19 14:57:55;;;;;;;1.90;1.30;;;15.20;99.90;;;;;;4958962;28;20957;-63
2022/09/19 15:00:24;;;;;;;2.13;1.50;;;15.20;99.90;;;;;;4958640;28;20939;-63
2022/09/19 15:02:52;;;;;;;2.60;1.23;;;15.40;99.90;;;;;;4958736;28;20495;-64
2022/09/19 15:05:23;;;;;;;2.50;1.27;;;15.50;99.90;;;;;;4958907;28;20459;-64
2022/09/19 15:07:50;;;;;;;2.10;1.37;;;15.60;99.90;;;;;;4958813;28;20451;-64
2022/09/19 15:13:20;;;;;;;2.20;1.53;;;15.70;99.90;;;;;;5092261;27;20523;-64
2022/09/19 15:15:50;;;;;;;5.00;1.70;;;16.00;99.90;;;;;;5091144;28;20784;-64
2022/09/19 15:18:20;;;;;;;3.50;1.70;;;16.00;99.90;;;;;;5091461;28;20490;-64
2022/09/19 15:20:52;;;;;;;3.53;1.60;;;16.10;99.90;;;;;;5091443;28;20473;-64
2022/09/19 15:23:20;;;;;;;6.03;1.73;;;16.40;99.90;;;;;;5091276;28;20437;-64
2022/09/19 15:25:47;;;;;;;4.10;2.00;;;16.50;99.90;;;;;;5091247;28;20781;-64
2022/09/19 15:28:26;;;;;;;2.93;1.87;;;16.50;99.90;;;;;;5090979;28;20944;-65
2022/09/19 15:30:55;;;;;;;2.47;1.40;;;16.60;99.90;;;;;;5091855;28;20465;-65
2022/09/19 15:33:23;;;;;;;2.13;1.30;;;16.60;99.90;;;;;;5090793;28;20507;-64
2022/09/19 15:35:53;;;;;;;4.83;1.70;;;16.70;99.90;;;;;;5090790;28;20457;-64
2022/09/19 15:38:25;;;;;;;5.23;1.47;;;16.80;99.90;;;;;;5091118;28;20453;-65
2022/09/19 15:40:52;;;;;;;1.63;1.50;;;16.70;99.90;;;;;;5091102;28;20542;-65
2022/09/19 15:43:19;;;;;;;1.33;0.80;;;16.50;99.90;;;;;;5090793;28;20453;-65
2022/09/19 15:45:49;;;;;;;1.87;0.80;;;16.40;99.90;;;;;;5091636;28;20502;-65
2022/09/19 15:48:23;;;;;;;1.60;1.30;;;16.30;99.90;;;;;;5092570;28;20449;-64
2022/09/19 15:50:51;;;;;;;2.73;1.50;;;16.10;99.90;;;;;;5092668;28;20480;-64
2022/09/19 15:53:22;;;;;;;2.40;1.30;;;16.00;99.90;;;;;;5093246;28;20478;-65
2022/09/19 15:56:10;;;;;;;1.30;1.20;;;15.80;99.90;;;;;;5092740;28;20975;-64
2022/09/19 15:58:41;;;;;;;2.80;1.20;;;15.60;99.90;;;;;;5092621;28;20433;-64
2022/09/19 16:01:19;;;;;;;1.40;1.30;;;15.40;99.90;;;;;;5091548;28;20474;-64
2022/09/19 16:03:51;;;;;;;1.20;1.10;;;15.30;99.90;;;;;;5090733;28;20580;-63
2022/09/19 16:09:19;;;;;;;1.80;0.93;;;15.20;99.90;;;;;;5091012;28;20413;-64
2022/09/19 16:11:47;;;;;;;1.17;1.07;;;15.10;99.90;;;;;;5090157;28;20477;-65
2022/09/19 16:14:25;;;;;;;2.37;1.57;;;15.00;99.90;;;;;;5090410;28;20564;-64
2022/09/19 16:16:54;;;;;;;2.70;1.27;;;15.00;99.90;;;;;;5090001;28;20440;-65
2022/09/19 16:19:23;;;;;;;3.00;1.40;;;14.90;99.90;;;;;;5090278;28;20453;-64
2022/09/19 16:21:53;;;;;;;1.33;0.90;;;14.90;99.90;;;;;;5089959;28;20470;-64
2022/09/19 16:24:23;;;;;;;1.50;1.40;;;14.80;99.90;;;;;;5077974;28;20503;-64
2022/09/19 16:26:53;;;;;;;2.00;1.37;;;14.80;99.90;;;;;;5076919;28;20458;-64
2022/09/19 16:29:20;;;;;;;2.80;1.60;;;14.70;99.90;;;;;;5076739;28;20442;-65
2022/09/19 16:31:48;;;;;;;1.10;1.00;;;14.60;99.90;;;;;;5076486;28;20532;-64
2022/09/19 16:34:28;;;;;;;2.40;1.40;;;14.50;99.90;;;;;;5076798;28;20454;-65
2022/09/19 16:36:56;;;;;;;3.93;1.70;;;14.50;99.90;;;;;;5076457;28;20525;-64
2022/09/19 16:39:26;;;;;;;1.63;1.30;;;14.40;99.90;;;;;;5076120;28;20496;-65
2022/09/19 16:42:18;;;;;;;2.33;1.20;;;14.40;99.90;;;;;;5076181;28;20472;-65
2022/09/19 16:44:50;;;;;;;1.30;1.20;;;14.30;99.90;;;;;;5076394;28;20805;-64
2022/09/19 16:47:19;;;;;;;1.93;1.40;;;14.30;99.90;;;;;;5076162;28;20444;-64
2022/09/19 16:49:49;;;;;;;2.80;1.70;;;14.30;99.90;;;;;;5076022;28;20435;-65
2022/09/19 16:52:25;;;;;;;3.27;1.33;;;14.30;99.90;;;;;;5075729;28;20478;-64
2022/09/19 16:54:53;;;;;;;1.67;1.30;;;14.30;99.90;;;;;;5075548;28;20441;-64
2022/09/19 16:57:20;;;;;;;1.87;1.70;;;14.20;99.90;;;;;;5076084;28;20817;-64
2022/09/19 16:59:48;;;;;;;2.00;1.90;;;14.30;99.90;;;;;;5076029;28;20533;-65
2022/09/19 17:02:20;;;;;;;1.67;1.20;;;14.30;99.90;;;;;;5079896;28;20474;-65
2022/09/19 17:04:48;;;;;;;1.43;1.30;;;14.30;99.90;;;;;;5081000;28;20466;-65
2022/09/19 17:07:17;;;;;;;2.50;1.20;;;14.20;99.90;;;;;;5075968;28;20523;-64
2022/09/19 17:09:43;;;;;;;2.03;1.40;;;14.20;99.90;;;;;;5075486;28;20816;-64
2022/09/19 17:12:11;;;;;;;1.53;1.30;;;14.10;99.90;;;;;;5075213;28;20887;-66
2022/09/19 17:14:38;;;;;;;1.70;1.60;;;14.10;99.90;;;;;;5075227;28;20960;-65
2022/09/19 17:17:04;;;;;;;1.50;1.40;;;14.00;99.90;;;;;;5075577;28;20450;-64
2022/09/19 17:19:31;;;;;;;1.80;1.10;;;13.90;99.90;;;;;;5075525;28;20507;-64
2022/09/19 17:21:59;;;;;;;1.27;1.27;;;13.80;99.90;;;;;;5075253;28;20588;-65
2022/09/19 17:24:26;;;;;;;1.87;1.40;;;13.70;99.90;;;;;;5081452;28;20458;-64
2022/09/19 17:26:53;;;;;;;2.60;1.90;;;13.60;99.90;;;;;;5085635;28;20478;-65
2022/09/19 17:29:20;;;;;;;2.20;1.77;;;13.50;99.90;;;;;;5080924;28;20480;-65
2022/09/19 17:31:47;;;;;;;2.20;1.57;;;13.50;99.90;;;;;;5076703;28;20478;-64
2022/09/19 17:34:15;;;;;;;1.87;1.77;;;13.50;99.90;;;;;;5074432;28;20485;-64